Date,TemperatureHighF,TemperatureAvgF,TemperatureLowF,DewpointHighF,DewpointAvgF,DewpointLowF,HumidityHigh,HumidityAvg,HumidityLow,PressureMaxIn,PressureMinIn,WindSpeedMaxMPH,WindSpeedAvgMPH,GustSpeedMaxMPH,PrecipitationSumIn
2013-1-1,82,62,49,55,46,37,100,61,21,30.12,29.91,14,2,14,0.00
2013-1-2,74,66,60,62,54,48,94,69,45,29.97,29.85,10,2,10,0.00
2013-1-3,61,57,50,60,55,48,98,93,77,30.15,29.94,10,1,10,0.00
2013-1-4,57,52,48,50,44,40,96,76,58,30.21,30.12,8,2,8,0.00
2013-1-5,75,54,43,48,38,28,80,57,24,30.24,30.15,10,2,10,0.00
2013-1-6,62,56,51,55,50,44,100,80,52,30.15,30.00,8,1,8,0.00
2013-1-7,65,54,47,52,44,37,100,70,40,30.21,30.06,15,4,15,0.00
2013-1-8,70,62,57,61,54,48,94,76,54,30.18,30.09,12,2,12,0.00
2013-1-9,75,66,62,67,62,57,100,86,55,30.24,30.12,13,1,13,0.00
2013-1-10,83,68,62,66,61,49,100,81,34,30.27,30.18,11,1,11,0.00
2013-1-11,89,70,62,68,56,40,100,68,20,30.18,30.06,13,2,13,0.00
2013-1-12,92,70,62,68,56,39,98,68,18,30.12,30.00,8,1,8,0.00
2013-1-13,84,70,64,63,55,40,92,63,25,30.06,29.97,11,2,11,0.00
2013-1-14,89,71,62,63,53,40,96,58,19,30.09,30.00,13,2,13,0.00
2013-1-15,88,71,64,64,54,42,93,58,21,30.06,29.94,13,2,13,0.00
2013-1-16,85,72,66,60,52,40,78,52,22,30.00,29.85,14,4,14,0.00
2013-1-17,76,62,45,58,45,23,86,56,31,30.03,29.80,18,5,18,0.00
2013-1-18,66,50,43,33,29,22,56,45,26,30.30,30.03,22,5,22,0.00
2013-1-19,66,55,46,51,41,31,84,59,37,30.27,30.09,14,4,14,0.00
2013-1-20,87,62,54,53,42,28,87,56,14,30.12,29.94,10,1,10,0.00
2013-1-21,75,59,51,46,38,31,79,50,22,30.03,29.91,9,1,9,0.00
2013-1-22,72,54,45,33,22,15,46,31,15,30.21,30.00,12,2,12,0.00
2013-1-23,77,50,37,29,22,15,54,35,14,30.33,30.18,10,2,10,0.00
2013-1-24,79,60,48,48,34,27,67,40,21,30.21,30.09,18,2,18,0.00
2013-1-25,81,62,55,50,41,25,78,50,15,30.24,30.06,12,3,12,0.00
2013-1-26,79,65,54,54,46,36,93,54,29,30.12,30.03,13,2,13,0.00
2013-1-27,69,63,59,53,46,38,76,56,35,30.27,30.12,15,4,15,0.00
2013-1-28,78,66,56,60,52,46,88,63,34,30.27,30.15,9,1,9,0.00
2013-1-29,89,70,61,64,56,42,94,64,21,30.18,30.00,9,2,9,0.00
2013-1-30,86,74,57,62,52,43,88,49,23,30.00,29.68,24,7,24,0.00
2013-1-31,71,54,45,53,26,12,88,39,15,30.15,29.80,17,4,17,0.00
2013-2-1,67,52,40,29,20,11,43,29,16,30.24,30.12,15,3,15,0.00
2013-2-2,74,50,36,35,18,10,62,30,14,30.24,30.06,10,1,10,0.00
2013-2-3,78,54,43,34,21,12,61,30,14,30.09,29.94,14,3,14,0.00
2013-2-4,67,55,42,36,28,17,76,39,16,30.03,29.94,8,1,8,0.00
2013-2-5,72,59,46,40,32,24,59,38,22,30.00,29.88,9,1,9,0.00
2013-2-6,75,63,59,52,44,36,76,50,28,30.06,29.94,7,1,7,0.00
2013-2-7,85,68,61,62,53,42,89,62,24,30.00,29.71,15,3,15,0.00
2013-2-8,86,63,56,59,45,33,79,55,17,30.00,29.74,15,4,15,0.00
2013-2-9,79,57,49,48,37,24,83,51,16,30.15,29.97,15,3,15,0.00
2013-2-10,78,64,52,50,44,35,85,51,23,30.21,30.06,15,3,15,0.00
2013-2-11,84,72,64,55,48,40,68,46,22,30.09,29.94,15,4,15,0.00
2013-2-12,86,70,65,66,56,44,100,64,27,29.97,29.77,15,3,15,0.00
2013-2-13,80,71,58,71,56,32,99,63,27,29.83,29.68,15,4,15,0.00
2013-2-14,58,54,49,55,44,36,92,71,54,29.97,29.80,10,0,10,0.00
2013-2-15,80,54,42,42,37,26,84,57,16,30.00,29.88,10,1,10,0.00
2013-2-16,62,49,39,45,35,17,87,61,26,30.03,29.83,17,3,17,0.00
2013-2-17,72,43,32,22,11,4,44,29,14,30.27,30.03,13,3,13,0.00
2013-2-18,77,48,30,37,23,12,69,41,14,30.30,30.12,11,1,11,0.00
2013-2-19,83,63,46,62,42,32,92,52,18,30.12,29.88,22,4,22,0.00
2013-2-20,85,58,46,55,29,12,84,39,12,30.09,29.94,11,2,11,0.00
2013-2-21,79,59,44,51,37,20,79,49,16,30.06,29.94,9,2,9,0.00
2013-2-22,89,71,62,66,55,42,98,62,20,29.97,29.88,11,1,11,0.00
2013-2-23,84,73,63,66,56,43,99,63,25,29.88,29.74,17,4,17,0.00
2013-2-24,80,65,59,66,49,20,100,66,15,29.91,29.74,9,1,9,0.00
2013-2-25,67,62,60,67,60,49,100,94,63,29.85,29.71,15,3,15,0.00
2013-2-26,84,69,61,69,54,32,100,66,19,29.71,29.53,17,5,17,0.00
2013-2-27,77,62,54,44,33,22,57,37,16,29.88,29.71,15,4,15,0.00
2013-2-28,81,60,50,37,27,14,57,31,13,29.88,29.74,18,3,18,0.00
2013-3-1,75,55,48,24,22,17,38,28,14,29.91,29.80,11,4,11,0.00
2013-3-2,67,48,40,27,19,12,61,34,16,29.91,29.83,19,4,19,0.00
2013-3-3,50,42,35,22,17,12,54,37,25,30.03,29.88,17,4,17,0.00
2013-3-4,72,50,35,32,19,11,52,33,15,30.12,30.00,12,2,12,0.00
2013-3-5,81,62,44,45,30,21,52,33,13,30.06,29.80,17,4,17,0.00
2013-3-6,69,54,45,57,24,12,87,34,16,30.03,29.74,22,6,22,0.00
2013-3-7,69,50,38,39,24,17,65,38,16,30.15,30.03,8,2,10,0.00
2013-3-8,79,54,42,40,34,20,81,52,13,30.12,30.06,13,2,13,0.00
2013-3-9,75,56,45,48,37,26,89,55,19,30.18,30.09,14,2,14,0.00
2013-3-10,79,63,50,55,42,34,90,52,21,30.12,30.03,8,1,10,0.00
2013-3-11,78,67,56,57,45,36,89,50,23,30.03,29.80,14,2,14,0.00
2013-3-12,70,65,54,67,50,29,100,61,24,29.91,29.74,12,3,12,0.00
2013-3-13,77,60,50,34,22,13,46,26,14,30.09,29.91,14,3,14,0.00
2013-3-14,68,53,43,27,16,9,49,25,16,30.21,30.06,11,2,11,0.00
2013-3-15,79,57,41,28,22,14,54,30,13,30.18,30.00,10,1,10,0.00
2013-3-16,86,65,49,40,29,21,68,29,12,30.06,29.88,12,2,12,0.00
2013-3-17,83,66,51,48,31,22,80,31,12,30.03,29.88,11,2,11,0.00
2013-3-18,83,71,63,53,45,38,67,41,23,29.94,29.77,13,2,13,0.00
2013-3-19,88,71,63,53,42,35,61,37,19,29.91,29.77,17,2,17,0.00
2013-3-20,67,61,52,52,40,30,89,50,29,29.91,29.74,17,2,17,0.00
2013-3-21,74,56,43,50,26,12,96,40,14,29.85,29.74,14,2,14,0.00
2013-3-22,68,56,49,38,24,16,49,29,18,29.97,29.83,13,3,13,0.00
2013-3-23,69,61,56,67,55,38,100,83,49,29.91,29.71,15,1,15,0.00
2013-3-24,83,72,61,72,59,44,100,71,26,29.71,29.41,15,4,15,0.00
2013-3-25,76,60,51,53,25,12,62,28,14,29.94,29.50,22,4,22,0.00
2013-3-26,68,50,41,22,14,9,43,25,16,30.15,29.94,17,3,17,0.00
2013-3-27,74,50,38,24,18,13,46,31,14,30.21,30.09,13,2,13,0.00
2013-3-28,82,54,42,32,23,16,49,32,13,30.21,30.09,11,2,11,0.00
2013-3-29,86,59,46,36,28,18,64,36,12,30.24,30.09,10,1,10,0.00
2013-3-30,85,64,48,39,30,20,58,31,12,30.15,30.00,13,2,13,0.00
2013-3-31,84,70,59,43,34,26,47,29,17,30.03,29.85,14,3,14,0.00
2013-4-1,86,71,64,60,48,39,71,47,20,29.88,29.77,14,2,14,0.00
2013-4-2,87,67,57,54,38,21,81,42,12,30.00,29.88,13,2,13,0.00
2013-4-3,81,67,60,65,51,37,100,63,22,30.00,29.91,14,2,14,0.00
2013-4-4,78,70,65,70,59,48,100,72,37,29.97,29.74,13,2,13,0.00
2013-4-5,68,60,56,60,55,48,99,85,62,29.94,29.71,10,1,10,0.00
2013-4-6,78,61,50,52,44,30,86,58,22,30.09,29.91,17,3,17,0.00
2013-4-7,77,66,58,64,48,37,93,58,26,30.09,30.00,10,1,10,0.00
2013-4-8,88,69,58,63,49,37,91,55,19,30.03,30.03,10,1,10,0.00
2013-4-9,89,72,64,65,52,39,93,56,20,30.09,30.03,10,1,10,0.00
2013-4-10,83,72,61,62,53,46,88,56,30,30.06,29.91,10,1,10,0.00
2013-4-11,90,76,70,71,61,44,100,64,22,29.91,29.71,13,3,13,0.00
2013-4-12,88,78,71,72,59,43,100,59,21,29.77,29.65,15,4,15,0.00
2013-4-13,84,72,63,59,38,24,66,33,13,29.91,29.77,10,2,10,0.00
2013-4-14,75,66,62,66,55,44,100,70,34,29.91,29.77,13,2,13,0.00
2013-4-15,90,70,63,68,58,45,100,71,22,30.03,29.71,12,2,12,0.00
2013-4-16,87,72,66,65,58,45,92,65,24,30.09,30.00,14,2,14,0.00
2013-4-17,78,71,65,66,58,50,91,65,40,30.09,30.00,11,2,11,0.00
2013-4-18,87,75,66,69,56,43,92,58,24,30.00,29.85,9,1,9,0.00
2013-4-19,91,79,66,68,58,45,83,52,22,29.91,29.77,17,4,17,0.00
2013-4-20,66,57,51,61,50,39,98,80,46,30.09,29.88,9,2,9,0.00
2013-4-21,72,64,56,59,48,40,82,56,38,30.12,30.03,20,5,20,0.00
2013-4-22,66,62,59,63,54,40,100,77,43,30.06,29.97,18,5,18,0.00
2013-4-23,75,64,57,58,47,39,90,59,28,30.06,29.97,13,3,13,0.00
2013-4-24,86,69,55,63,47,30,93,54,14,30.06,29.97,8,1,8,0.00
2013-4-25,88,75,63,61,50,40,85,46,20,30.09,30.00,10,1,10,0.00
2013-4-26,82,71,64,58,46,39,65,42,25,30.21,30.06,15,4,15,0.00
2013-4-27,86,72,63,60,48,36,82,47,20,30.18,30.06,13,3,13,0.00
2013-4-28,85,74,66,62,53,42,83,52,24,30.09,29.91,13,2,13,0.00
2013-4-29,83,73,66,65,54,44,96,54,26,29.94,29.83,14,2,14,0.00
2013-4-30,88,72,65,69,58,42,99,67,20,29.94,29.85,12,1,12,0.00
2013-5-1,77,70,66,65,56,50,88,63,43,29.97,29.88,17,5,17,0.00
2013-5-2,70,69,67,70,67,58,100,94,70,29.94,29.83,17,4,17,0.00
2013-5-3,69,67,65,67,61,41,100,82,36,29.83,29.74,22,6,22,0.00
2013-5-4,69,67,65,69,65,46,100,94,46,29.74,29.62,16,3,16,0.00
2013-5-5,78,68,60,70,48,26,100,59,16,29.80,29.62,13,2,13,0.00
2013-5-6,77,66,57,49,34,22,62,33,14,29.88,29.77,10,2,10,0.00
2013-5-7,78,67,57,44,38,30,61,36,19,29.91,29.80,15,2,15,0.00
2013-5-8,84,71,59,57,43,33,88,42,17,30.00,29.88,10,1,10,0.00
2013-5-9,86,74,65,61,47,35,86,44,17,30.03,29.97,8,1,8,0.00
2013-5-10,89,76,64,60,48,32,74,40,14,30.03,29.88,14,2,14,0.00
2013-5-11,92,76,69,68,54,42,91,51,19,29.94,29.83,14,1,14,0.00
2013-5-12,86,75,68,65,52,39,91,51,20,29.91,29.83,10,1,10,0.00
2013-5-13,84,71,62,42,29,20,37,22,12,30.06,29.91,11,2,11,0.00
2013-5-14,82,68,54,38,28,20,42,25,13,30.15,30.03,9,1,9,0.00
2013-5-15,87,73,60,46,37,26,58,30,12,30.12,29.97,10,1,10,0.00
2013-5-16,88,76,68,49,44,36,45,33,17,30.03,29.91,12,2,12,0.00
2013-5-17,89,77,68,57,47,29,67,38,14,30.00,29.94,10,2,10,0.00
2013-5-18,91,78,70,72,57,41,97,53,19,30.03,29.91,9,2,9,0.00
2013-5-19,89,77,70,72,60,43,100,62,21,30.00,29.88,10,1,10,0.00
2013-5-20,85,76,70,72,62,50,100,68,31,30.00,29.91,10,0,10,0.00
2013-5-21,84,75,71,73,64,51,93,71,34,29.94,29.85,0,0,0,0.00
2013-5-22,85,76,69,73,61,49,93,65,30,29.91,29.83,0,0,0,0.00
2013-5-23,94,80,69,70,56,38,92,51,18,29.88,29.80,9,1,9,0.00
2013-5-24,97,80,72,67,46,26,85,37,9,30.00,29.83,13,2,13,0.00
2013-5-25,87,75,68,50,36,28,47,26,14,30.15,30.00,13,3,13,0.00
2013-5-26,92,74,63,50,37,23,58,30,9,30.15,30.06,12,1,12,0.00
2013-5-27,89,76,65,53,45,36,63,35,17,30.12,30.03,10,1,10,0.00
2013-5-28,90,77,68,56,49,41,60,39,21,30.09,30.03,13,2,13,0.00
2013-5-29,88,79,71,64,57,51,75,50,29,30.06,30.00,14,2,14,0.00
2013-5-30,89,80,74,72,60,49,90,55,26,30.09,30.00,15,2,15,0.00
2013-5-31,91,79,72,71,59,45,90,55,21,30.06,30.00,14,1,14,0.00
2013-6-1,90,80,73,72,58,44,92,50,22,30.00,29.91,12,2,12,0.00
2013-6-2,90,80,74,75,63,52,96,62,29,29.97,29.80,9,1,9,0.00
2013-6-3,91,80,74,71,61,48,89,55,24,29.85,29.74,11,2,11,0.00
2013-6-4,87,78,74,76,65,55,96,65,36,29.91,29.83,11,1,11,0.00
2013-6-5,86,76,73,74,66,50,99,73,31,29.91,29.83,13,1,13,0.00
2013-6-6,76,74,72,76,74,70,100,99,90,29.85,29.44,20,1,20,0.00
2013-6-7,92,79,71,74,59,46,100,57,23,29.83,29.44,15,3,15,0.00
2013-6-8,92,81,74,72,58,42,90,50,19,29.97,29.83,11,2,11,0.00
2013-6-9,89,79,75,76,64,50,94,64,30,30.03,29.94,13,2,13,0.00
2013-6-10,92,82,75,73,61,46,92,54,22,30.00,29.88,9,2,9,0.00
2013-6-11,96,84,77,70,57,44,80,43,18,29.97,29.88,9,1,9,0.00
2013-6-12,104,86,75,71,56,40,83,42,13,29.97,29.85,8,1,8,0.00
2013-6-13,98,85,78,76,60,44,87,45,18,29.88,29.74,15,2,15,0.00
2013-6-14,94,80,71,74,67,50,98,68,24,29.85,29.68,17,2,17,0.00
2013-6-15,91,80,74,75,55,42,97,46,19,30.00,29.85,11,2,11,0.00
2013-6-16,95,81,72,63,55,43,71,44,18,30.03,29.94,12,2,12,0.00
2013-6-17,96,84,78,71,60,45,79,47,20,30.00,29.85,9,2,9,0.00
2013-6-18,98,84,75,68,54,43,80,40,17,29.94,29.80,11,2,11,0.00
2013-6-19,102,84,74,74,58,40,97,46,13,29.94,29.83,12,2,12,0.00
2013-6-20,92,80,74,76,65,47,100,65,22,30.00,29.88,19,2,19,0.00
2013-6-21,88,79,75,75,66,51,93,70,30,30.03,29.94,13,2,13,0.00
2013-6-22,87,78,75,77,68,52,97,74,31,30.03,29.97,13,1,13,0.00
2013-6-23,92,81,74,76,62,46,92,59,22,30.06,30.00,10,1,10,0.00
2013-6-24,94,81,76,79,62,45,91,56,20,30.09,30.00,8,1,8,0.00
2013-6-25,91,82,76,75,60,42,88,52,19,30.09,29.94,10,2,10,0.00
2013-6-26,92,80,72,74,63,46,96,58,23,30.00,29.88,10,2,10,0.00
2013-6-27,91,82,73,66,58,48,77,45,26,29.94,29.77,9,2,10,0.00
2013-6-28,91,80,75,73,61,51,89,54,27,29.83,29.68,13,2,13,0.00
2013-6-29,88,81,75,76,62,52,92,55,30,29.71,29.65,12,3,12,0.00
2013-6-30,91,80,74,75,66,51,93,65,26,29.77,29.68,11,3,11,0.00
2013-7-1,86,77,73,74,68,51,100,76,36,29.91,29.74,17,3,17,0.00
2013-7-2,88,77,73,78,70,53,100,83,31,30.00,29.88,15,2,15,0.00
2013-7-3,88,78,73,79,68,52,94,74,30,30.03,29.97,11,2,11,0.00
2013-7-4,89,80,73,73,64,52,98,62,30,30.09,30.00,14,3,14,0.00
2013-7-5,89,81,74,81,64,51,100,63,28,30.06,30.00,15,2,15,0.00
2013-7-6,96,82,76,73,61,48,88,52,21,30.06,29.97,12,2,12,0.00
2013-7-7,96,83,76,73,60,45,87,51,18,30.06,29.97,10,2,10,0.00
2013-7-8,99,83,76,74,60,44,87,51,17,30.09,30.00,9,1,9,0.00
2013-7-9,99,83,77,74,59,43,85,49,17,30.09,29.97,9,1,9,0.00
2013-7-10,98,83,75,72,57,42,88,48,17,30.00,29.85,8,2,8,0.00
2013-7-11,97,83,75,76,60,42,94,52,17,29.91,29.77,15,3,15,0.00
2013-7-12,89,80,74,76,65,49,91,63,26,29.85,29.77,10,2,10,0.00
2013-7-13,88,77,73,76,69,52,100,78,31,29.91,29.80,8,1,8,0.00
2013-7-14,88,79,73,78,65,50,100,68,29,30.03,29.88,10,1,10,0.00
2013-7-15,86,79,75,74,66,55,88,65,36,30.09,30.00,17,2,17,0.00
2013-7-16,92,82,77,72,62,50,81,55,26,30.12,30.06,13,3,13,0.00
2013-7-17,95,83,77,74,60,42,87,51,18,30.12,30.00,11,2,11,0.00
2013-7-18,94,82,76,73,60,45,85,50,19,30.03,29.94,11,1,11,0.00
2013-7-19,92,80,74,77,61,44,98,57,20,30.03,29.94,11,2,11,0.00
2013-7-20,90,78,73,75,66,54,98,70,30,30.00,29.91,15,2,15,0.00
2013-7-21,91,79,74,76,64,45,92,64,22,30.00,29.91,13,1,13,0.00
2013-7-22,92,80,74,77,68,46,99,73,21,30.03,29.91,19,2,19,0.00
2013-7-23,90,80,75,72,64,54,83,61,29,29.94,29.80,12,2,12,0.00
2013-7-24,90,80,73,74,62,52,94,58,29,29.83,29.71,8,2,10,0.00
2013-7-25,96,82,74,68,59,45,81,49,18,29.85,29.74,10,1,10,0.00
2013-7-26,94,84,77,74,61,44,88,51,20,29.91,29.83,11,2,11,0.00
2013-7-27,91,81,74,76,66,48,89,65,26,29.91,29.77,13,1,13,0.00
2013-7-28,89,80,75,75,66,43,92,68,21,29.94,29.83,17,1,17,0.00
2013-7-29,93,83,74,71,58,43,85,48,19,30.03,29.91,8,2,8,0.00
2013-7-30,93,82,78,68,61,50,70,49,24,30.06,30.00,10,1,10,0.00
2013-7-31,94,80,73,76,68,46,100,73,19,30.06,30.06,10,1,10,0.00
2013-8-1,93,79,74,78,70,48,100,80,26,30.06,29.83,13,1,13,0.00
2013-8-2,93,82,76,78,63,44,99,58,20,29.94,29.83,9,1,9,0.00
2013-8-3,92,83,77,74,63,49,86,55,25,29.94,29.85,9,1,9,0.00
2013-8-4,95,85,79,74,60,44,84,47,18,29.94,29.83,8,1,8,0.00
2013-8-5,95,86,80,75,61,46,81,47,19,29.88,29.80,12,1,12,0.00
2013-8-6,95,85,80,74,63,49,81,52,21,29.88,29.80,10,2,10,0.00
2013-8-7,91,84,80,70,62,53,70,50,29,29.91,29.83,13,3,13,0.00
2013-8-8,88,83,78,79,65,52,90,59,30,29.94,29.85,11,1,11,0.00
2013-8-9,93,83,78,77,63,47,89,55,22,29.97,29.85,10,1,10,0.00
2013-8-10,94,84,78,75,62,43,86,54,18,30.00,29.94,13,1,13,0.00
2013-8-11,96,85,79,74,59,43,83,46,17,30.03,29.94,8,2,10,0.00
2013-8-12,95,85,77,76,59,45,91,44,19,30.00,29.85,12,2,12,0.00
2013-8-13,96,86,77,78,57,33,92,47,12,29.88,29.74,10,1,10,0.00
2013-8-14,96,84,73,78,60,44,100,50,18,29.85,29.71,21,1,21,0.00
2013-8-15,93,82,76,79,66,43,100,68,18,29.85,29.71,10,1,11,0.00
2013-8-16,88,80,76,80,71,50,100,80,29,30.50,29.74,11,1,11,0.00
2013-8-17,88,82,78,84,71,52,100,75,30,30.92,30.15,9,1,9,0.00
2013-8-18,91,83,77,84,68,51,99,67,28,30.56,30.56,13,1,13,0.00
2013-8-19,90,83,79,76,64,50,86,56,26,30.95,27.23,9,1,9,0.00
2013-8-20,94,84,77,80,63,44,93,56,20,30.98,20.26,9,1,9,0.00
2013-8-21,88,82,77,76,67,53,87,62,33,20.26,20.26,12,1,12,0.00
2013-8-22,82,78,74,77,74,56,97,85,45,31.01,19.87,13,1,13,0.00
2013-8-23,89,80,77,81,72,53,97,79,31,31.01,24.10,8,1,8,0.00
2013-8-24,85,80,77,78,68,54,97,70,37,31.01,20.23,10,1,10,0.00
2013-8-25,86,79,76,72,64,52,83,61,34,20.35,20.35,17,4,17,0.00
2013-8-26,87,80,74,71,60,49,86,54,29,31.01,20.26,15,3,15,0.00
2013-8-27,90,80,75,76,57,39,92,53,19,23.77,17.72,9,1,9,0.00
2013-8-28,91,81,74,68,52,39,80,41,18,17.72,17.72,6,1,7,0.00
2013-8-29,95,84,74,59,47,32,57,31,12,23.45,17.72,8,1,8,0.00
2013-8-30,97,84,77,64,55,38,63,40,14,29.85,17.72,13,1,13,0.00
2013-8-31,96,81,75,74,64,33,86,63,12,29.85,29.77,10,1,10,0.00
2013-9-1,93,82,77,73,61,44,84,54,21,29.88,29.77,11,2,11,0.00
2013-9-2,95,82,76,70,59,44,75,48,18,29.88,29.80,8,1,8,0.00
2013-9-3,92,84,77,72,58,44,82,45,20,29.88,29.80,8,1,8,0.00
2013-9-4,96,84,77,74,59,42,83,49,17,29.97,29.88,9,1,9,0.00
2013-9-5,95,82,77,80,65,44,92,61,18,30.00,29.91,8,0,8,0.00
2013-9-6,91,80,76,75,68,46,87,70,23,29.97,29.88,10,1,10,0.00
2013-9-7,90,81,74,74,58,37,91,53,19,29.94,29.85,14,2,14,0.00
2013-9-8,94,80,73,69,52,32,83,44,12,29.91,29.83,10,2,10,0.00
2013-9-9,94,81,73,67,52,32,78,41,13,29.97,29.85,11,2,11,0.00
2013-9-10,94,82,76,66,51,40,69,37,17,30.06,29.94,14,3,14,0.00
2013-9-11,79,78,76,59,57,55,55,49,43,30.03,30.00,3,0,3,0.00
2013-9-13,89,84,81,54,48,40,39,29,19,29.74,29.68,8,2,8,0.00
2013-9-14,93,82,73,79,59,37,94,53,15,29.91,29.71,26,1,26,0.00
2013-9-15,95,82,77,82,62,43,96,58,18,30.00,29.88,8,1,9,0.00
2013-9-16,97,83,78,75,60,40,86,52,17,30.00,29.91,10,1,10,0.00
2013-9-17,89,80,76,76,65,46,98,65,24,30.03,29.91,14,2,14,0.00
2013-9-18,84,78,74,77,63,46,100,65,33,30.03,29.94,18,4,18,0.00
2013-9-19,88,77,73,80,58,46,92,54,34,30.00,29.94,10,2,10,0.00
2013-9-20,94,78,72,71,56,32,87,52,12,29.97,29.83,11,1,11,0.00
2013-9-21,98,79,71,70,54,32,84,48,12,29.85,29.65,8,2,8,0.00
2013-9-22,86,78,75,72,62,51,87,61,30,29.77,29.65,8,1,8,0.00
2013-9-23,82,78,74,74,66,56,88,69,42,29.85,29.74,8,1,8,0.00
2013-9-24,83,78,76,78,68,56,92,75,43,29.85,29.74,10,1,10,0.00
2013-9-25,82,79,76,76,68,57,90,72,43,29.74,29.65,8,0,8,0.00
2013-9-26,80,76,71,75,65,52,88,70,44,29.83,29.65,11,2,11,0.00
2013-9-27,83,74,68,64,55,47,79,54,30,29.91,29.80,17,4,17,0.00
2013-9-28,77,74,72,69,57,44,85,58,33,30.00,29.88,16,4,16,0.00
2013-9-29,90,76,69,63,52,41,75,46,19,29.94,29.88,14,3,14,0.00
2013-9-30,91,75,69,62,48,32,74,41,13,29.94,29.85,13,2,13,0.00
2013-10-1,73,72,71,49,48,44,45,42,37,29.94,29.94,4,0,4,0.00
2013-10-8,74,72,69,73,69,64,96,93,85,29.91,29.83,14,4,14,0.00
2013-10-9,71,67,65,65,60,47,92,78,44,30.00,29.91,12,2,12,0.00
2013-10-10,97,72,64,67,49,25,89,53,8,30.00,29.88,7,1,8,0.00
2013-10-11,96,74,65,66,47,26,86,46,9,29.94,29.85,10,1,10,0.00
2013-10-12,102,75,64,60,43,24,77,39,7,29.94,29.88,8,1,8,0.00
2013-10-13,100,75,64,58,46,26,75,41,8,30.00,29.91,9,2,10,0.00
2013-10-14,80,72,68,61,53,45,77,54,31,29.97,29.91,14,3,14,0.00
2013-10-15,74,71,69,71,66,56,96,84,60,29.94,29.85,15,4,15,0.00
2013-10-16,100,74,67,65,55,27,82,56,8,29.91,29.83,10,2,10,0.00
2013-10-17,98,77,68,71,54,27,85,53,8,29.88,29.80,8,1,8,0.00
2013-10-18,104,80,72,66,54,27,80,46,7,29.91,29.80,9,2,9,0.00
2013-10-19,95,80,75,67,57,42,74,48,18,29.85,29.77,8,2,8,0.00
2013-10-20,87,74,68,62,45,27,65,38,12,29.91,29.80,11,3,11,0.00
2013-10-21,83,75,70,67,57,49,76,55,34,29.94,29.85,12,2,12,0.00
2013-10-22,82,75,72,75,67,57,89,76,46,29.88,29.74,10,2,10,0.00
2013-10-23,91,69,58,68,44,20,94,52,10,29.94,29.74,12,2,12,0.00
2013-10-24,87,61,52,40,26,18,51,27,12,30.09,29.94,13,2,13,0.00
2013-10-25,95,64,54,43,30,17,65,33,9,30.18,30.06,10,2,10,0.00
2013-10-26,92,62,52,41,33,21,52,36,9,30.18,30.03,10,2,10,0.00
2013-10-27,91,62,50,52,33,17,82,41,10,30.09,30.00,8,1,8,0.00
2013-10-28,94,66,55,48,39,25,72,40,9,30.15,30.03,9,1,9,0.00
2013-10-29,91,69,60,60,47,26,84,51,10,30.21,30.12,14,2,14,0.00
2013-10-30,86,70,63,62,48,38,82,50,21,30.18,30.09,12,2,12,0.00
2013-10-31,87,75,68,69,52,36,83,49,19,30.09,29.88,9,2,9,0.00
2013-11-1,84,77,72,62,51,39,69,43,21,29.91,29.74,15,4,15,0.00
2013-11-2,77,69,59,74,58,33,99,73,27,29.88,29.68,12,1,12,0.00
2013-11-3,82,61,53,53,32,18,78,36,13,30.12,29.88,16,3,16,0.00
2013-11-4,75,64,55,60,41,28,79,44,19,30.18,30.09,21,5,21,0.00
2013-11-5,74,68,64,68,59,44,96,76,34,30.18,30.09,20,5,20,0.00
2013-11-6,82,72,68,67,60,42,89,70,25,30.09,30.00,10,3,10,0.00
2013-11-7,81,72,70,66,54,38,84,57,22,30.00,29.88,8,0,8,0.00
2013-11-8,74,61,52,46,28,20,43,30,14,30.12,29.94,17,4,17,0.00
2013-11-9,77,64,54,59,42,33,80,47,21,30.15,30.09,12,2,12,0.00
2013-11-10,84,67,61,66,49,25,88,58,15,30.15,30.03,9,1,9,0.00
2013-11-11,86,66,58,61,47,24,82,56,12,30.12,30.03,10,2,10,0.00
2013-11-12,78,68,61,61,44,25,81,47,16,30.06,29.94,13,2,13,0.00
2013-11-13,61,50,44,26,19,13,39,29,20,30.36,30.06,22,6,22,0.00
2013-11-14,70,55,43,52,34,17,76,46,23,30.30,30.15,17,3,17,0.00
2013-11-15,68,65,58,64,58,50,89,80,54,30.15,30.00,5,0,5,0.00
2013-11-16,77,70,64,71,56,38,97,67,26,30.09,30.00,12,2,12,0.00
2013-11-17,80,74,70,73,62,47,92,69,33,30.03,29.91,8,1,8,0.00
2013-11-18,81,75,71,75,68,54,99,81,41,29.94,29.80,8,1,8,0.00
2013-11-19,76,64,55,75,36,22,99,37,14,29.97,29.83,17,5,17,0.00
2013-11-20,70,66,63,64,49,37,88,58,39,30.12,29.94,16,5,16,0.00
2013-11-21,74,68,66,63,57,44,87,69,34,30.18,30.09,13,4,13,0.00
2013-11-22,87,71,66,68,55,32,89,62,14,30.18,30.06,10,1,10,0.00
2013-11-23,92,71,64,66,50,24,86,53,9,30.06,29.91,10,1,10,0.00
2013-11-24,66,58,52,45,24,10,47,29,14,30.27,30.00,22,6,22,0.00
2013-11-25,73,60,48,50,34,21,62,39,20,30.24,30.03,17,3,17,0.00
2013-11-26,78,72,65,76,61,40,98,71,39,30.03,29.59,13,3,13,0.00
2013-11-27,74,56,40,73,37,17,98,51,27,30.15,29.53,21,5,21,0.00
2013-11-28,65,45,33,25,18,8,45,35,14,30.33,30.15,15,3,15,0.00
2013-11-29,73,53,44,33,25,17,45,35,15,30.36,30.27,14,4,14,0.00
2013-11-30,62,58,55,47,39,30,66,51,39,30.30,30.15,15,4,15,0.00
2013-12-1,78,61,54,52,39,23,78,47,14,30.15,29.91,9,1,9,0.00
2013-12-2,82,61,57,54,43,22,82,57,13,29.91,29.74,10,1,10,0.00
2013-12-3,85,64,54,63,42,22,88,51,12,29.88,29.80,9,1,9,0.00
2013-12-4,87,69,62,65,50,27,91,55,14,30.00,29.85,8,0,8,0.00
2013-12-5,92,72,64,68,49,26,85,51,10,30.09,29.97,11,2,11,0.00
2013-12-6,93,74,69,65,50,26,82,46,9,30.06,29.97,13,3,13,0.00
2013-12-7,90,75,69,71,53,26,94,52,10,30.12,30.03,11,2,11,0.00
2013-12-8,71,68,66,64,58,48,87,70,45,30.18,30.06,9,2,9,0.00
2013-12-9,89,74,67,72,52,26,92,54,10,30.09,29.97,10,2,10,0.00
2013-12-10,80,70,54,70,53,21,89,58,22,30.18,29.94,13,4,13,0.00
2013-12-11,66,58,49,39,33,21,47,39,27,30.21,30.15,15,3,15,0.00
2013-12-12,79,57,48,32,20,10,43,25,12,30.30,30.15,9,2,11,0.00
2013-12-13,75,56,46,48,31,18,72,41,14,30.27,30.06,13,2,13,0.00
2013-12-14,82,68,56,71,56,37,96,70,21,30.06,29.80,17,3,17,0.00
2013-12-15,71,63,49,69,50,28,99,69,35,30.09,29.77,13,2,13,0.00
2013-12-16,71,49,40,36,24,11,72,41,13,30.18,30.06,8,1,8,0.00
2013-12-17,80,53,41,38,25,11,77,40,13,30.18,30.06,10,1,10,0.00
2013-12-18,77,53,45,30,19,9,56,28,12,30.21,30.09,11,2,11,0.00
2013-12-19,81,56,42,50,34,21,79,49,13,30.21,30.12,8,1,8,0.00
2013-12-20,85,63,53,58,43,23,82,54,12,30.15,30.06,9,1,9,0.00
2013-12-21,88,73,64,62,49,26,82,47,12,30.06,29.94,15,4,15,0.00
2013-12-22,84,76,72,69,54,38,87,52,21,30.03,29.97,14,3,14,0.00
2013-12-23,86,75,64,67,52,35,82,47,17,30.06,29.94,16,4,16,0.00
2013-12-24,74,56,46,51,22,5,62,30,13,30.24,30.03,13,4,13,0.00
2013-12-25,61,51,40,39,27,7,52,40,21,30.21,30.15,15,4,15,0.00
2013-12-26,61,54,50,38,31,24,57,42,25,30.21,30.09,9,2,9,0.00
2013-12-27,60,56,52,42,35,27,61,45,30,30.24,30.12,13,3,13,0.00
2013-12-28,72,65,58,66,51,28,87,63,31,30.21,29.88,11,2,11,0.00
2013-12-29,76,70,60,72,56,45,97,63,39,29.91,29.80,14,3,14,0.00
2013-12-30,79,58,51,50,35,17,79,47,13,30.12,29.91,10,2,10,0.00
2013-12-31,63,58,54,36,30,20,46,36,19,30.24,30.09,9,1,9,0.00
2014-1-1,63,59,54,61,47,33,94,66,41,30.24,30.00,8,1,8,0.00
2014-1-2,70,65,56,68,61,29,97,89,37,30.00,29.65,20,1,20,0.00